Time;durP1;ratioP1;P1;durP2;ratioP2;P2;SDS_P1;SDS_P2;PMS_P1;PMS_P2;Temp;Humidity;BMP_temperature;BMP_pressure;BME280_temperature;BME280_humidity;BME280_pressure;Samples;Min_cycle;Max_cycle;Signal;HPM_P1;HPM_P2
2022/07/19 00:00:18;;;;;;;4.50;4.10;;;;;24.60;100825.00;;;;2078697;28;20448;-56
2022/07/19 00:01:18;;;;;;;4.38;3.80;;;;;24.60;100827.00;;;;2078887;28;20297;-56
2022/07/19 00:02:18;;;;;;;5.87;3.97;;;;;24.60;100824.00;;;;2078975;28;20708;-55
2022/07/19 00:03:20;;;;;;;6.20;3.70;;;;;24.60;100823.00;;;;2072297;28;20261;-55
2022/07/19 00:04:21;;;;;;;4.78;4.30;;;;;24.60;100824.00;;;;2077273;28;20251;-55
2022/07/19 00:05:21;;;;;;;4.70;4.13;;;;;24.60;100829.00;;;;2078637;28;20206;-56
2022/07/19 00:06:21;;;;;;;4.90;4.40;;;;;24.60;100827.00;;;;2078791;28;20229;-56
2022/07/19 00:07:22;;;;;;;6.40;3.60;;;;;24.60;100821.00;;;;2077721;28;20571;-56
2022/07/19 00:08:22;;;;;;;5.10;3.83;;;;;24.50;100813.00;;;;2078030;28;20205;-56
2022/07/19 00:09:23;;;;;;;4.23;3.83;;;;;24.60;100810.00;;;;2078543;28;20252;-55
2022/07/19 00:10:23;;;;;;;4.43;3.90;;;;;24.60;100811.00;;;;2078070;28;20202;-56
2022/07/19 00:11:23;;;;;;;4.90;4.00;;;;;24.60;100814.00;;;;2077999;28;20237;-56
2022/07/19 00:12:24;;;;;;;4.03;3.63;;;;;24.60;100809.00;;;;2078725;28;20214;-56
2022/07/19 00:13:24;;;;;;;5.50;4.13;;;;;24.50;100815.00;;;;2072148;28;20218;-56
2022/07/19 00:14:24;;;;;;;5.50;4.30;;;;;24.50;100810.00;;;;2069854;28;20222;-56
2022/07/19 00:15:25;;;;;;;4.37;3.70;;;;;24.60;100812.00;;;;2070740;28;20280;-56
2022/07/19 00:16:25;;;;;;;4.60;3.87;;;;;24.60;100804.00;;;;2070571;28;20217;-56
2022/07/19 00:17:25;;;;;;;4.23;3.80;;;;;24.60;100802.00;;;;2069587;28;20239;-56
2022/07/19 00:18:26;;;;;;;3.97;3.57;;;;;24.60;100805.00;;;;2070683;28;20633;-55
2022/07/19 00:19:26;;;;;;;4.40;4.00;;;;;24.60;100802.00;;;;2070659;28;20692;-56
2022/07/19 00:20:26;;;;;;;4.53;4.03;;;;;24.60;100809.00;;;;2070441;28;20574;-56
2022/07/19 00:21:27;;;;;;;5.37;3.80;;;;;24.60;100804.00;;;;2074474;28;20992;-56
2022/07/19 00:22:27;;;;;;;5.17;3.70;;;;;24.50;100793.00;;;;2078145;28;20213;-55
2022/07/19 00:23:27;;;;;;;4.67;3.90;;;;;24.50;100800.00;;;;2059504;28;20643;-55
2022/07/19 00:24:28;;;;;;;4.00;3.70;;;;;24.50;100798.00;;;;2061822;28;20223;-55
2022/07/19 00:25:28;;;;;;;3.87;3.57;;;;;24.50;100793.00;;;;2070381;28;20245;-55
2022/07/19 00:26:29;;;;;;;4.47;3.80;;;;;24.60;100796.00;;;;2070642;28;20252;-55
2022/07/19 00:27:29;;;;;;;5.80;3.70;;;;;24.50;100797.00;;;;2068977;28;20765;-55
2022/07/19 00:28:29;;;;;;;3.70;3.40;;;;;24.50;100801.00;;;;2069966;28;20221;-55
2022/07/19 00:29:30;;;;;;;4.00;3.60;;;;;24.50;100802.00;;;;2070081;28;20217;-55
2022/07/19 00:30:30;;;;;;;4.90;3.77;;;;;24.50;100795.00;;;;2070517;28;20228;-55
2022/07/19 00:31:30;;;;;;;6.40;3.80;;;;;24.50;100798.00;;;;2070510;28;20756;-56
2022/07/19 00:32:31;;;;;;;3.90;3.50;;;;;24.60;100792.00;;;;2070526;28;20630;-55
2022/07/19 00:33:31;;;;;;;3.67;3.37;;;;;24.60;100798.00;;;;2069704;28;20340;-55
2022/07/19 00:34:31;;;;;;;4.13;3.73;;;;;24.60;100795.00;;;;2069554;28;20305;-55
2022/07/19 00:35:32;;;;;;;3.90;3.60;;;;;24.60;100797.00;;;;2070367;28;20222;-56
2022/07/19 00:36:32;;;;;;;3.60;3.30;;;;;24.50;100800.00;;;;2070613;28;20248;-55
2022/07/19 00:37:32;;;;;;;5.53;3.80;;;;;24.50;100790.00;;;;2069493;28;20218;-55
2022/07/19 00:38:33;;;;;;;5.30;3.63;;;;;24.60;100789.00;;;;2061835;28;20249;-55
2022/07/19 00:39:33;;;;;;;4.20;3.67;;;;;24.60;100793.00;;;;2059764;28;20211;-56
2022/07/19 00:40:33;;;;;;;4.13;3.73;;;;;24.60;100795.00;;;;2070560;28;20218;-56
2022/07/19 00:41:41;;;;;;;5.00;3.70;;;;;24.60;100794.00;;;;2070697;28;20302;-55
2022/07/19 00:42:42;;;;;;;3.83;3.53;;;;;24.50;100789.00;;;;2069563;28;20237;-56
2022/07/19 00:43:42;;;;;;;3.70;3.30;;;;;24.50;100787.00;;;;2069900;28;20572;-56
2022/07/19 00:44:43;;;;;;;4.43;3.57;;;;;24.60;100788.00;;;;2070001;28;20214;-56
2022/07/19 00:45:43;;;;;;;4.30;3.60;;;;;24.60;100782.00;;;;2069510;28;20206;-55
2022/07/19 00:46:43;;;;;;;4.00;3.70;;;;;24.60;100788.00;;;;2070528;28;20267;-56
2022/07/19 00:47:44;;;;;;;4.57;3.90;;;;;24.60;100793.00;;;;2069696;28;20218;-56
2022/07/19 00:48:44;;;;;;;3.70;3.40;;;;;24.60;100778.00;;;;2061794;28;20375;-55
2022/07/19 00:49:44;;;;;;;4.00;3.60;;;;;24.50;100786.00;;;;2061602;28;20293;-56
2022/07/19 00:50:45;;;;;;;5.70;3.03;;;;;24.50;100787.00;;;;2082925;28;20205;-56
2022/07/19 00:51:45;;;;;;;4.80;3.50;;;;;24.50;100778.00;;;;2078484;28;20212;-55
2022/07/19 00:52:46;;;;;;;5.60;3.60;;;;;24.50;100789.00;;;;2077835;28;20731;-56
2022/07/19 00:53:47;;;;;;;3.77;3.40;;;;;24.50;100766.00;;;;2077767;28;20628;-56
2022/07/19 00:54:47;;;;;;;4.37;3.50;;;;;24.50;100786.00;;;;2076659;28;20456;-55
2022/07/19 00:55:47;;;;;;;4.00;3.60;;;;;24.50;100784.00;;;;2077722;28;20209;-55
2022/07/19 00:56:48;;;;;;;4.53;3.70;;;;;24.50;100788.00;;;;2078043;28;20237;-55
2022/07/19 00:57:49;;;;;;;5.30;3.45;;;;;24.50;100788.00;;;;2077894;28;20214;-55
2022/07/19 00:58:49;;;;;;;3.43;3.13;;;;;24.50;100792.00;;;;2078914;28;20673;-55
2022/07/19 00:59:53;;;;;;;4.07;3.70;;;;;24.50;100791.00;;;;2078546;28;20690;-56
2022/07/19 01:00:53;;;;;;;4.20;3.58;;;;;24.50;100787.00;;;;2069370;28;20312;-55
2022/07/19 01:01:54;;;;;;;3.90;3.30;;;;;24.50;100787.00;;;;2069143;28;20272;-55
2022/07/19 01:02:55;;;;;;;5.30;3.33;;;;;24.50;100778.00;;;;2077859;28;20214;-55
2022/07/19 01:03:56;;;;;;;4.90;3.37;;;;;24.50;100783.00;;;;2069574;28;20579;-56
2022/07/19 01:04:56;;;;;;;6.07;3.13;;;;;24.50;100787.00;;;;2077804;28;20257;-55
2022/07/19 01:05:56;;;;;;;3.77;3.43;;;;;24.50;100785.00;;;;2086027;28;20660;-55
2022/07/19 01:06:56;;;;;;;4.57;3.37;;;;;24.50;100787.00;;;;2078654;28;20224;-55
2022/07/19 01:07:57;;;;;;;3.53;3.10;;;;;24.50;100786.00;;;;2077705;28;20217;-55
2022/07/19 01:08:57;;;;;;;4.10;3.60;;;;;24.50;100782.00;;;;2078586;28;20218;-55
2022/07/19 01:09:57;;;;;;;4.10;3.13;;;;;24.50;100779.00;;;;2069645;28;20298;-55
2022/07/19 01:10:58;;;;;;;3.70;3.40;;;;;24.50;100789.00;;;;2069536;28;20265;-55
2022/07/19 01:11:58;;;;;;;4.03;3.20;;;;;24.50;100790.00;;;;2077759;28;20218;-56
2022/07/19 01:12:58;;;;;;;3.40;3.10;;;;;24.50;100794.00;;;;2069671;28;20237;-55
2022/07/19 01:13:59;;;;;;;4.30;3.30;;;;;24.50;100791.00;;;;2069482;28;20694;-56
2022/07/19 01:14:59;;;;;;;3.00;2.70;;;;;24.50;100782.00;;;;2077586;28;20259;-56
2022/07/19 01:16:00;;;;;;;4.27;3.10;;;;;24.20;100792.00;;;;2078334;28;20210;-57
2022/07/19 01:17:00;;;;;;;3.10;2.80;;;;;23.90;100784.00;;;;2077774;28;20233;-57
2022/07/19 01:18:01;;;;;;;4.40;3.40;;;;;23.70;100794.00;;;;2068654;28;20257;-56
2022/07/19 01:19:01;;;;;;;5.70;2.50;;;;;23.60;100790.00;;;;2077874;28;20205;-57
2022/07/19 01:20:01;;;;;;;3.70;2.40;;;;;23.60;100787.00;;;;2078494;28;20296;-56
2022/07/19 01:21:02;;;;;;;4.03;2.50;;;;;23.60;100788.00;;;;2079299;28;20213;-56
2022/07/19 01:22:03;;;;;;;4.17;2.70;;;;;23.50;100705.00;;;;2077830;28;20209;-56
2022/07/19 01:23:03;;;;;;;3.97;2.70;;;;;23.50;100788.00;;;;2079665;28;20232;-56
2022/07/19 01:24:04;;;;;;;3.03;2.73;;;;;23.50;100788.00;;;;2079732;28;20241;-56
2022/07/19 01:25:05;;;;;;;3.70;2.90;;;;;23.40;100785.00;;;;2079951;28;20230;-56
2022/07/19 01:26:05;;;;;;;4.07;2.90;;;;;23.40;100785.00;;;;2079709;28;20213;-56
2022/07/19 01:27:05;;;;;;;4.50;2.90;;;;;23.40;100789.00;;;;2072210;28;21008;-56
2022/07/19 01:28:06;;;;;;;3.23;2.93;;;;;23.40;100780.00;;;;2070937;28;20216;-56
2022/07/19 01:29:06;;;;;;;3.97;2.90;;;;;23.30;100787.00;;;;2071891;28;22357;-58
2022/07/19 01:30:20;;;;;;;2.87;2.50;;;;;23.30;100785.00;;;;2071746;28;20237;-56
2022/07/19 01:31:21;;;;;;;3.58;2.60;;;;;23.30;100779.00;;;;2071559;28;20221;-57
2022/07/19 01:32:21;;;;;;;2.77;2.47;;;;;23.30;100788.00;;;;2071441;28;20214;-57
2022/07/19 01:33:21;;;;;;;4.50;2.93;;;;;23.30;100786.00;;;;2079172;28;20222;-57
2022/07/19 01:34:22;;;;;;;4.07;3.00;;;;;23.20;100792.00;;;;2080161;28;20222;-57
2022/07/19 01:35:22;;;;;;;4.43;2.90;;;;;23.20;100785.00;;;;2079668;28;20300;-57
2022/07/19 01:36:22;;;;;;;3.60;2.63;;;;;23.20;100808.00;;;;2079571;28;20209;-57
2022/07/19 01:37:23;;;;;;;3.37;2.70;;;;;23.20;100784.00;;;;2079185;28;20644;-57
2022/07/19 01:38:23;;;;;;;4.50;3.40;;;;;23.20;100789.00;;;;2079929;28;20210;-57
2022/07/19 01:39:23;;;;;;;4.47;2.90;;;;;23.20;100786.00;;;;2078692;28;20416;-57
2022/07/19 01:40:24;;;;;;;3.83;2.50;;;;;23.10;100780.00;;;;2071219;28;20250;-57
2022/07/19 01:41:24;;;;;;;3.17;2.97;;;;;23.10;100776.00;;;;2071571;28;20210;-57
2022/07/19 01:42:24;;;;;;;5.90;2.83;;;;;23.10;100785.00;;;;2071351;28;20222;-57
2022/07/19 01:43:25;;;;;;;3.70;2.73;;;;;23.00;100787.00;;;;2071417;28;20300;-57
2022/07/19 01:44:25;;;;;;;3.50;2.40;;;;;23.00;100782.00;;;;2071498;28;20218;-57
2022/07/19 01:45:26;;;;;;;4.63;2.80;;;;;23.00;100783.00;;;;2073690;28;20366;-57
2022/07/19 01:46:26;;;;;;;3.00;2.70;;;;;23.00;100779.00;;;;2079934;28;20251;-57
2022/07/19 01:47:26;;;;;;;2.80;2.30;;;;;23.00;100780.00;;;;2079106;28;20296;-57
2022/07/19 01:48:27;;;;;;;3.10;2.40;;;;;23.00;100783.00;;;;2079973;28;20213;-57
2022/07/19 01:49:27;;;;;;;2.73;2.53;;;;;23.00;100779.00;;;;2080223;28;20576;-57
2022/07/19 01:50:27;;;;;;;3.20;2.50;;;;;22.90;100772.00;;;;2080055;28;20264;-57
2022/07/19 01:51:28;;;;;;;4.80;3.07;;;;;22.90;100782.00;;;;2069861;28;20241;-57
2022/07/19 01:52:28;;;;;;;5.50;2.70;;;;;22.90;100782.00;;;;2079403;28;20645;-57
2022/07/19 01:53:28;;;;;;;5.83;2.67;;;;;22.80;100781.00;;;;2082236;28;20615;-56
2022/07/19 01:54:29;;;;;;;4.23;2.60;;;;;22.80;100784.00;;;;2080271;28;20217;-57
2022/07/19 01:55:29;;;;;;;3.10;2.83;;;;;22.90;100783.00;;;;2080130;28;20244;-57
2022/07/19 01:56:29;;;;;;;4.33;2.50;;;;;22.90;100781.00;;;;2079187;28;20209;-57
2022/07/19 01:57:30;;;;;;;4.77;2.60;;;;;22.90;100781.00;;;;2078593;28;20217;-56
2022/07/19 01:58:30;;;;;;;3.90;2.57;;;;;22.80;100785.00;;;;2079563;28;20248;-57
2022/07/19 01:59:30;;;;;;;3.03;2.70;;;;;22.90;100779.00;;;;2079823;28;20708;-57
2022/07/19 02:00:31;;;;;;;3.77;3.37;;;;;22.90;100782.00;;;;2080304;28;20237;-57
2022/07/19 02:01:31;;;;;;;4.50;2.63;;;;;22.90;100781.00;;;;2079341;28;20218;-57
2022/07/19 02:02:31;;;;;;;6.63;3.03;;;;;22.90;100785.00;;;;2079473;28;20216;-56
2022/07/19 02:03:32;;;;;;;3.97;2.90;;;;;22.90;100785.00;;;;2079953;28;20244;-57
2022/07/19 02:04:32;;;;;;;3.33;2.77;;;;;22.90;100779.00;;;;2079865;28;20209;-57
2022/07/19 02:05:32;;;;;;;3.53;3.23;;;;;22.90;100784.00;;;;2079675;28;20213;-56
2022/07/19 02:06:33;;;;;;;3.83;2.77;;;;;22.80;100779.00;;;;2079622;28;20228;-57
2022/07/19 02:07:34;;;;;;;5.43;2.67;;;;;22.30;100785.00;;;;2078936;28;20713;-57
2022/07/19 02:08:34;;;;;;;3.38;2.70;;;;;22.80;100780.00;;;;2079856;28;20916;-57
2022/07/19 02:09:34;;;;;;;3.20;2.90;;;;;22.80;100782.00;;;;2078763;28;20221;-57
2022/07/19 02:10:35;;;;;;;3.20;2.90;;;;;22.70;100782.00;;;;2080172;28;20682;-57
2022/07/19 02:11:35;;;;;;;3.40;2.90;;;;;22.70;100768.00;;;;2079923;28;20702;-56
2022/07/19 02:12:36;;;;;;;3.23;2.83;;;;;22.70;100772.00;;;;2080308;28;20703;-57
2022/07/19 02:13:36;;;;;;;2.90;2.60;;;;;22.70;100768.00;;;;2080058;28;20697;-56
2022/07/19 02:14:37;;;;;;;3.53;2.80;;;;;22.70;100772.00;;;;2073984;28;21015;-56
2022/07/19 02:15:37;;;;;;;3.83;2.90;;;;;22.70;100775.00;;;;2071779;28;20762;-57
2022/07/19 02:16:38;;;;;;;4.13;2.83;;;;;22.70;100775.00;;;;2074687;28;20218;-56
2022/07/19 02:17:38;;;;;;;3.40;3.10;;;;;22.60;100775.00;;;;2078275;28;20303;-57
2022/07/19 02:18:38;;;;;;;3.07;2.77;;;;;22.60;100771.00;;;;2080099;28;20220;-56
2022/07/19 02:19:39;;;;;;;3.00;2.47;;;;;22.60;100773.00;;;;2079777;28;20622;-56
2022/07/19 02:20:39;;;;;;;4.07;2.87;;;;;22.60;100768.00;;;;2072325;28;20206;-56
2022/07/19 02:21:39;;;;;;;3.70;2.50;;;;;22.60;100767.00;;;;2072635;28;20681;-57
2022/07/19 02:22:40;;;;;;;2.90;2.50;;;;;22.60;100765.00;;;;2079868;28;20304;-57
2022/07/19 02:23:40;;;;;;;3.13;2.60;;;;;22.60;100758.00;;;;2079661;28;20209;-56
2022/07/19 02:24:42;;;;;;;3.83;2.60;;;;;22.60;100751.00;;;;2079236;28;20221;-57
2022/07/19 02:25:42;;;;;;;3.72;2.80;;;;;22.60;100760.00;;;;2079486;28;20822;-56
2022/07/19 02:26:43;;;;;;;3.10;2.70;;;;;22.60;100764.00;;;;2079732;28;20263;-57
2022/07/19 02:27:43;;;;;;;3.57;2.90;;;;;22.60;100759.00;;;;2078578;28;20269;-56
2022/07/19 02:28:43;;;;;;;3.60;2.33;;;;;22.50;100766.00;;;;2079681;28;20689;-56
2022/07/19 02:29:44;;;;;;;3.43;2.43;;;;;22.50;100763.00;;;;2079010;28;20263;-56
2022/07/19 02:30:44;;;;;;;5.20;2.80;;;;;22.50;100759.00;;;;2079442;28;20206;-57
2022/07/19 02:31:44;;;;;;;4.67;3.00;;;;;22.50;100759.00;;;;2078568;28;20643;-56
2022/07/19 02:32:45;;;;;;;3.83;2.90;;;;;22.50;100763.00;;;;2079832;28;20251;-57
2022/07/19 02:33:45;;;;;;;2.93;2.60;;;;;22.50;100759.00;;;;2079664;28;20583;-57
2022/07/19 02:34:46;;;;;;;2.97;2.70;;;;;22.50;100758.00;;;;2079560;28;20217;-57
2022/07/19 02:35:46;;;;;;;5.57;3.17;;;;;22.50;100756.00;;;;2079577;28;20539;-56
2022/07/19 02:36:46;;;;;;;3.03;2.73;;;;;22.50;100758.00;;;;2078827;28;20267;-57
2022/07/19 02:37:46;;;;;;;3.30;3.00;;;;;22.50;100755.00;;;;2078003;28;20218;-56
2022/07/19 02:38:47;;;;;;;3.00;2.33;;;;;22.50;100764.00;;;;2078866;28;20245;-57
2022/07/19 02:39:47;;;;;;;4.40;2.73;;;;;22.50;100761.00;;;;2078906;28;20222;-56
2022/07/19 02:40:47;;;;;;;3.13;2.70;;;;;22.50;100762.00;;;;2070549;28;20229;-56
2022/07/19 02:41:48;;;;;;;3.03;2.73;;;;;22.50;100757.00;;;;2078902;28;20229;-56
2022/07/19 02:42:48;;;;;;;4.50;2.60;;;;;22.50;100754.00;;;;2070332;28;20214;-56
2022/07/19 02:43:48;;;;;;;3.70;2.80;;;;;22.50;100761.00;;;;2070984;28;20268;-57
2022/07/19 02:44:49;;;;;;;3.93;2.97;;;;;22.50;100762.00;;;;2071225;28;20210;-56
2022/07/19 02:45:49;;;;;;;2.90;2.60;;;;;22.50;100755.00;;;;2071065;28;20222;-56
2022/07/19 02:46:49;;;;;;;3.10;2.80;;;;;22.40;100760.00;;;;2071047;28;20614;-57
2022/07/19 02:47:50;;;;;;;2.63;2.40;;;;;22.40;100759.00;;;;2070008;28;20210;-57
2022/07/19 02:48:50;;;;;;;3.70;3.20;;;;;22.40;100763.00;;;;2071232;28;20229;-56
2022/07/19 02:49:50;;;;;;;3.40;2.87;;;;;22.40;100761.00;;;;2071464;28;20232;-57
2022/07/19 02:50:51;;;;;;;2.83;2.50;;;;;22.30;100762.00;;;;2071082;28;20222;-57
2022/07/19 02:51:51;;;;;;;2.90;2.60;;;;;22.30;100756.00;;;;2071424;28;20234;-56
2022/07/19 02:52:51;;;;;;;3.03;2.53;;;;;22.30;100750.00;;;;2071643;28;20225;-57
2022/07/19 02:53:52;;;;;;;4.60;2.70;;;;;22.40;100752.00;;;;2071774;28;20294;-56
2022/07/19 02:54:52;;;;;;;3.37;2.70;;;;;22.40;100754.00;;;;2071521;28;20349;-56
2022/07/19 02:55:53;;;;;;;4.53;3.00;;;;;22.40;100746.00;;;;2071529;28;20214;-56
2022/07/19 02:56:53;;;;;;;2.63;2.43;;;;;22.40;100751.00;;;;2071377;28;20222;-56
2022/07/19 02:57:54;;;;;;;3.93;2.60;;;;;22.40;100748.00;;;;2070262;28;20500;-56
2022/07/19 02:58:54;;;;;;;3.03;2.73;;;;;22.30;100757.00;;;;2071578;28;20218;-56
2022/07/19 02:59:54;;;;;;;3.60;3.03;;;;;22.40;100749.00;;;;2071349;28;20214;-57
2022/07/19 03:00:55;;;;;;;3.77;2.80;;;;;22.30;100747.00;;;;2071848;28;20233;-56
2022/07/19 03:01:55;;;;;;;2.90;2.53;;;;;22.30;100751.00;;;;2071502;28;20309;-57
2022/07/19 03:03:43;;;;;;;2.90;2.60;;;;;22.30;100759.00;;;;2071293;28;20218;-56
2022/07/19 03:04:17;;;;;;;4.72;3.00;;;;;22.30;100748.00;;;;2070160;28;20880;-57
2022/07/19 03:05:17;;;;;;;2.67;2.30;;;;;22.30;100744.00;;;;2070812;28;20218;-56
2022/07/19 03:06:18;;;;;;;5.60;3.20;;;;;22.30;100746.00;;;;2070287;28;20210;-56
2022/07/19 03:07:18;;;;;;;4.13;2.50;;;;;22.30;100747.00;;;;2061470;28;20214;-56
2022/07/19 03:08:18;;;;;;;4.00;2.87;;;;;22.30;100747.00;;;;2070028;28;20297;-57
2022/07/19 03:09:19;;;;;;;3.33;3.03;;;;;22.20;100749.00;;;;2069468;28;20209;-56
2022/07/19 03:10:20;;;;;;;4.45;3.00;;;;;22.30;100740.00;;;;2069773;28;20210;-56
2022/07/19 03:11:20;;;;;;;3.00;2.70;;;;;22.30;100744.00;;;;2071077;28;20217;-56
2022/07/19 03:12:20;;;;;;;4.07;3.00;;;;;22.30;100743.00;;;;2070809;28;20210;-57
2022/07/19 03:13:21;;;;;;;3.40;2.60;;;;;22.30;100739.00;;;;2062060;28;20214;-56
2022/07/19 03:14:21;;;;;;;4.20;2.63;;;;;22.30;100741.00;;;;2070348;28;20218;-56
2022/07/19 03:15:21;;;;;;;3.20;2.70;;;;;22.30;100743.00;;;;2070461;28;20242;-57
2022/07/19 03:16:22;;;;;;;6.10;2.67;;;;;22.30;100738.00;;;;2074117;28;20227;-57
2022/07/19 03:17:22;;;;;;;2.97;2.67;;;;;22.30;100745.00;;;;2077740;28;20213;-56
2022/07/19 03:18:22;;;;;;;2.70;2.50;;;;;22.20;100750.00;;;;2079244;28;20232;-57
2022/07/19 03:19:25;;;;;;;3.33;3.03;;;;;22.20;100735.00;;;;2079232;28;20229;-56
2022/07/19 03:20:25;;;;;;;5.75;3.13;;;;;22.20;100744.00;;;;2079326;28;20593;-56
2022/07/19 03:21:25;;;;;;;4.43;2.73;;;;;22.20;100746.00;;;;2078834;28;20303;-62
2022/07/19 03:22:26;;;;;;;2.93;2.70;;;;;22.20;100742.00;;;;2078950;28;20217;-57
2022/07/19 03:23:27;;;;;;;2.97;2.67;;;;;22.10;100745.00;;;;2077025;28;20213;-56
2022/07/19 03:24:27;;;;;;;3.05;2.75;;;;;22.20;100739.00;;;;2071172;28;20561;-57
2022/07/19 03:25:28;;;;;;;3.07;2.77;;;;;22.10;100743.00;;;;2071071;28;20275;-56
2022/07/19 03:26:28;;;;;;;3.90;2.60;;;;;22.10;100742.00;;;;2071080;28;20210;-57
2022/07/19 03:27:29;;;;;;;3.95;2.65;;;;;22.10;100745.00;;;;2072209;28;20234;-56
2022/07/19 03:28:30;;;;;;;2.87;2.63;;;;;22.10;100736.00;;;;2079115;28;20254;-56
2022/07/19 03:29:30;;;;;;;4.50;2.90;;;;;22.10;100744.00;;;;2079189;28;20290;-56
2022/07/19 03:30:31;;;;;;;4.10;3.20;;;;;22.20;100744.00;;;;2079322;28;20228;-57
2022/07/19 03:31:31;;;;;;;3.25;2.75;;;;;22.10;100740.00;;;;2078746;28;20209;-57
2022/07/19 03:32:32;;;;;;;3.70;2.80;;;;;22.10;100748.00;;;;2078358;28;20237;-57
2022/07/19 03:33:32;;;;;;;3.40;2.70;;;;;22.10;100745.00;;;;2076335;28;20241;-56
2022/07/19 03:34:32;;;;;;;2.87;2.67;;;;;22.10;100752.00;;;;2071170;28;20214;-57
2022/07/19 03:35:33;;;;;;;3.20;2.63;;;;;22.10;100758.00;;;;2071285;28;20225;-56
2022/07/19 03:36:33;;;;;;;3.90;2.73;;;;;22.00;100748.00;;;;2071059;28;20766;-56
2022/07/19 03:37:34;;;;;;;3.83;2.60;;;;;22.00;100749.00;;;;2070188;28;20221;-57
2022/07/19 03:38:34;;;;;;;4.93;2.97;;;;;22.00;100743.00;;;;2070550;28;20902;-56
2022/07/19 03:39:34;;;;;;;4.03;2.53;;;;;22.00;100737.00;;;;2068461;28;20264;-56
2022/07/19 03:40:35;;;;;;;4.33;3.10;;;;;22.00;100740.00;;;;2071228;28;20210;-57
2022/07/19 03:41:35;;;;;;;2.97;2.73;;;;;22.00;100744.00;;;;2070668;28;20214;-57
2022/07/19 03:42:35;;;;;;;3.20;2.90;;;;;22.00;100747.00;;;;2070678;28;20280;-57
2022/07/19 03:43:37;;;;;;;3.23;2.93;;;;;22.00;100747.00;;;;2067789;28;20214;-57
2022/07/19 03:44:38;;;;;;;3.58;3.28;;;;;22.00;100748.00;;;;2072578;28;20613;-57
2022/07/19 03:45:38;;;;;;;3.30;2.60;;;;;22.00;100751.00;;;;2079108;28;20225;-57
2022/07/19 03:46:38;;;;;;;2.97;2.63;;;;;22.00;100750.00;;;;2078880;28;20848;-58
2022/07/19 03:47:39;;;;;;;4.00;3.10;;;;;22.00;100748.00;;;;2066606;28;20713;-57
2022/07/19 03:48:39;;;;;;;3.77;2.90;;;;;22.00;100747.00;;;;2070976;28;20700;-56
2022/07/19 03:49:39;;;;;;;4.27;2.90;;;;;22.00;100754.00;;;;2071232;28;20554;-57
2022/07/19 03:50:40;;;;;;;6.10;2.80;;;;;22.00;100748.00;;;;2071005;28;20210;-57
2022/07/19 03:51:40;;;;;;;3.37;3.07;;;;;22.00;100750.00;;;;2070706;28;20218;-57
2022/07/19 03:52:40;;;;;;;4.43;2.90;;;;;22.00;100748.00;;;;2070543;28;20217;-57
2022/07/19 03:53:41;;;;;;;3.10;2.80;;;;;22.00;100745.00;;;;2071796;28;20206;-57
2022/07/19 03:54:41;;;;;;;2.87;2.50;;;;;22.00;100736.00;;;;2071141;28;20228;-57
2022/07/19 03:55:41;;;;;;;3.73;2.83;;;;;22.00;100745.00;;;;2071128;28;20217;-57
2022/07/19 03:56:42;;;;;;;3.13;2.83;;;;;22.00;100745.00;;;;2071222;28;20237;-57
2022/07/19 03:57:42;;;;;;;3.40;2.83;;;;;22.00;100742.00;;;;2076116;28;20221;-57
2022/07/19 03:58:42;;;;;;;3.27;2.97;;;;;22.00;100748.00;;;;2079726;28;20224;-57
2022/07/19 03:59:43;;;;;;;4.23;2.60;;;;;22.00;100755.00;;;;2071655;28;20226;-57
2022/07/19 04:00:45;;;;;;;3.03;2.57;;;;;22.00;100744.00;;;;2071146;28;20246;-56
2022/07/19 04:01:45;;;;;;;3.38;2.63;;;;;22.00;100737.00;;;;2073146;28;20684;-57
2022/07/19 04:02:46;;;;;;;3.67;2.60;;;;;22.00;100747.00;;;;2078997;28;20214;-56
2022/07/19 04:03:46;;;;;;;4.80;2.80;;;;;22.00;100741.00;;;;2078845;28;20209;-57
2022/07/19 04:04:46;;;;;;;5.80;2.80;;;;;22.00;100736.00;;;;2078951;28;20209;-56
2022/07/19 04:05:47;;;;;;;2.80;2.60;;;;;22.00;100738.00;;;;2078884;28;20209;-57
2022/07/19 04:06:47;;;;;;;3.33;2.80;;;;;22.00;100730.00;;;;2079730;28;20233;-57
2022/07/19 04:07:47;;;;;;;3.50;3.20;;;;;22.00;100731.00;;;;2071770;28;20210;-57
2022/07/19 04:08:48;;;;;;;3.23;2.90;;;;;22.00;100744.00;;;;2071894;28;20207;-56
2022/07/19 04:09:48;;;;;;;6.63;3.00;;;;;22.10;100740.00;;;;2071522;28;20234;-56
2022/07/19 04:10:48;;;;;;;6.63;3.00;;;;;22.10;100737.00;;;;2070907;28;20206;-57
2022/07/19 04:11:49;;;;;;;5.40;3.20;;;;;22.20;100747.00;;;;2070937;28;20292;-57
2022/07/19 04:12:49;;;;;;;6.47;3.10;;;;;22.40;100742.00;;;;2079539;28;20202;-56
2022/07/19 04:13:49;;;;;;;2.60;2.40;;;;;22.50;100741.00;;;;2079036;28;20237;-56
2022/07/19 04:14:50;;;;;;;3.73;3.10;;;;;22.70;100744.00;;;;2079549;28;20212;-56
2022/07/19 04:15:50;;;;;;;3.53;2.63;;;;;22.80;100740.00;;;;2078109;28;20272;-61
2022/07/19 04:16:50;;;;;;;2.87;2.67;;;;;22.90;100742.00;;;;2079162;28;20304;-56
2022/07/19 04:17:51;;;;;;;3.60;3.03;;;;;23.00;100745.00;;;;2077632;28;20248;-57
2022/07/19 04:18:51;;;;;;;5.70;3.00;;;;;23.00;100740.00;;;;2078850;28;20222;-56
2022/07/19 04:19:51;;;;;;;4.17;2.77;;;;;23.00;100734.00;;;;2078673;28;20264;-57
2022/07/19 04:20:52;;;;;;;3.07;2.77;;;;;23.10;100742.00;;;;2078771;28;20213;-56
2022/07/19 04:21:52;;;;;;;3.20;2.90;;;;;23.10;100742.00;;;;2079362;28;20217;-56
2022/07/19 04:22:53;;;;;;;5.80;3.30;;;;;23.20;100734.00;;;;2079528;28;20217;-56
2022/07/19 04:23:54;;;;;;;3.22;2.60;;;;;23.20;100744.00;;;;2079144;28;20293;-56
2022/07/19 04:24:54;;;;;;;2.97;2.53;;;;;23.30;100744.00;;;;2071682;28;20561;-56
2022/07/19 04:25:54;;;;;;;3.00;2.63;;;;;23.30;100749.00;;;;2079378;28;20714;-57
2022/07/19 04:26:55;;;;;;;3.10;2.40;;;;;23.30;100751.00;;;;2073473;28;20578;-57
2022/07/19 04:27:55;;;;;;;3.60;2.93;;;;;23.30;100747.00;;;;2077457;28;20241;-57
2022/07/19 04:28:55;;;;;;;6.23;2.60;;;;;23.30;100739.00;;;;2078829;28;20217;-57
2022/07/19 04:29:56;;;;;;;3.40;2.50;;;;;23.30;100739.00;;;;2078614;28;20213;-57
2022/07/19 04:30:56;;;;;;;3.40;3.10;;;;;23.30;100747.00;;;;2078932;28;20259;-58
2022/07/19 04:31:57;;;;;;;3.53;2.70;;;;;23.40;100743.00;;;;2073644;28;20456;-58
2022/07/19 04:32:57;;;;;;;5.67;2.60;;;;;23.30;100746.00;;;;2078324;28;20268;-58
2022/07/19 04:33:57;;;;;;;4.80;3.30;;;;;23.40;100747.00;;;;2078557;28;20284;-58
2022/07/19 04:34:58;;;;;;;2.90;2.60;;;;;23.40;100761.00;;;;2078219;28;20213;-58
2022/07/19 04:35:58;;;;;;;4.13;3.07;;;;;23.40;100742.00;;;;2070397;28;20222;-58
2022/07/19 04:36:58;;;;;;;2.57;2.37;;;;;23.40;100742.00;;;;2078513;28;20233;-57
2022/07/19 04:37:59;;;;;;;4.07;3.00;;;;;23.40;100741.00;;;;2078570;28;20217;-57
2022/07/19 04:38:59;;;;;;;4.03;3.00;;;;;23.40;100747.00;;;;2074083;28;20252;-58
2022/07/19 04:39:59;;;;;;;2.97;2.77;;;;;23.40;100747.00;;;;2079016;28;20389;-58
2022/07/19 04:41:00;;;;;;;3.03;2.50;;;;;23.50;100754.00;;;;2079494;28;20582;-58
2022/07/19 04:42:00;;;;;;;2.77;2.57;;;;;23.50;100768.00;;;;2079687;28;20245;-58
2022/07/19 04:43:00;;;;;;;5.30;2.70;;;;;23.50;100742.00;;;;2074832;28;20209;-60
2022/07/19 04:44:01;;;;;;;4.50;2.70;;;;;23.50;100747.00;;;;2070478;28;20226;-58
2022/07/19 04:45:01;;;;;;;3.90;3.17;;;;;23.50;100748.00;;;;2071043;28;20221;-57
2022/07/19 04:46:03;;;;;;;2.87;2.53;;;;;23.50;100757.00;;;;2072743;28;20211;-58
2022/07/19 04:47:04;;;;;;;3.17;2.88;;;;;23.60;100751.00;;;;2070068;28;20812;-57
2022/07/19 04:48:04;;;;;;;4.17;2.33;;;;;23.60;100764.00;;;;2070286;28;20227;-57
2022/07/19 04:49:04;;;;;;;3.10;2.80;;;;;23.60;100747.00;;;;2071325;28;20225;-57
2022/07/19 04:50:05;;;;;;;2.97;2.60;;;;;23.60;100751.00;;;;2071657;28;20219;-58
2022/07/19 04:51:06;;;;;;;3.20;2.77;;;;;23.60;100750.00;;;;2071871;28;20576;-58
2022/07/19 04:52:06;;;;;;;3.23;2.73;;;;;23.70;100739.00;;;;2072295;28;20245;-57
2022/07/19 04:53:07;;;;;;;2.73;2.53;;;;;23.70;100750.00;;;;2073000;28;20221;-57
2022/07/19 04:54:07;;;;;;;2.80;2.60;;;;;23.60;100749.00;;;;2072532;28;20230;-57
2022/07/19 04:55:08;;;;;;;2.87;2.67;;;;;23.60;100744.00;;;;2072911;28;20230;-58
2022/07/19 04:56:08;;;;;;;3.37;3.07;;;;;23.60;100749.00;;;;2073524;28;20214;-57
2022/07/19 04:57:08;;;;;;;3.70;2.97;;;;;23.60;100747.00;;;;2073646;28;20241;-57
2022/07/19 04:58:09;;;;;;;2.87;2.57;;;;;23.60;100748.00;;;;2080838;28;20220;-58
2022/07/19 04:59:09;;;;;;;5.63;3.00;;;;;23.70;100742.00;;;;2082574;28;20246;-58